sensor_id;sensor_type;location;lat;lon;timestamp;P1;durP1;ratioP1;P2;durP2;ratioP2
40150;SDS011;25866;52.420;10.640;2022-11-04T00:00:20;8.18;;;2.78;;
40150;SDS011;25866;52.420;10.640;2022-11-04T00:02:50;6.40;;;2.63;;
40150;SDS011;25866;52.420;10.640;2022-11-04T00:05:16;5.60;;;2.90;;
40150;SDS011;25866;52.420;10.640;2022-11-04T00:07:41;6.18;;;3.00;;
40150;SDS011;25866;52.420;10.640;2022-11-04T00:10:26;4.47;;;3.03;;
40150;SDS011;25866;52.420;10.640;2022-11-04T00:13:11;4.82;;;2.38;;
40150;SDS011;25866;52.420;10.640;2022-11-04T00:15:37;7.03;;;3.13;;
40150;SDS011;25866;52.420;10.640;2022-11-04T00:18:22;6.43;;;2.72;;
40150;SDS011;25866;52.420;10.640;2022-11-04T00:20:47;6.95;;;2.85;;
40150;SDS011;25866;52.420;10.640;2022-11-04T00:23:32;5.85;;;2.80;;
40150;SDS011;25866;52.420;10.640;2022-11-04T00:26:16;7.53;;;3.40;;
40150;SDS011;25866;52.420;10.640;2022-11-04T00:29:00;5.13;;;2.80;;
40150;SDS011;25866;52.420;10.640;2022-11-04T00:31:26;8.55;;;2.92;;
40150;SDS011;25866;52.420;10.640;2022-11-04T00:34:10;7.38;;;3.20;;
40150;SDS011;25866;52.420;10.640;2022-11-04T00:36:36;8.50;;;3.28;;
40150;SDS011;25866;52.420;10.640;2022-11-04T00:39:02;6.15;;;3.10;;
40150;SDS011;25866;52.420;10.640;2022-11-04T00:41:28;8.70;;;3.00;;
40150;SDS011;25866;52.420;10.640;2022-11-04T00:43:56;6.28;;;3.00;;
40150;SDS011;25866;52.420;10.640;2022-11-04T00:46:27;6.53;;;3.05;;
40150;SDS011;25866;52.420;10.640;2022-11-04T00:48:54;8.05;;;3.05;;
40150;SDS011;25866;52.420;10.640;2022-11-04T00:51:20;10.13;;;3.08;;
40150;SDS011;25866;52.420;10.640;2022-11-04T00:53:46;9.30;;;3.40;;
40150;SDS011;25866;52.420;10.640;2022-11-04T00:56:12;7.70;;;3.40;;
40150;SDS011;25866;52.420;10.640;2022-11-04T00:58:39;6.18;;;2.85;;
40150;SDS011;25866;52.420;10.640;2022-11-04T01:01:11;7.68;;;3.50;;
40150;SDS011;25866;52.420;10.640;2022-11-04T01:03:42;7.07;;;3.20;;
40150;SDS011;25866;52.420;10.640;2022-11-04T01:06:17;7.32;;;2.90;;
40150;SDS011;25866;52.420;10.640;2022-11-04T01:08:44;6.28;;;3.13;;
40150;SDS011;25866;52.420;10.640;2022-11-04T01:11:11;6.38;;;3.13;;
40150;SDS011;25866;52.420;10.640;2022-11-04T01:13:38;4.97;;;2.50;;
40150;SDS011;25866;52.420;10.640;2022-11-04T01:16:06;4.20;;;2.70;;
40150;SDS011;25866;52.420;10.640;2022-11-04T01:18:34;5.13;;;2.97;;
40150;SDS011;25866;52.420;10.640;2022-11-04T01:21:00;6.63;;;2.85;;
40150;SDS011;25866;52.420;10.640;2022-11-04T01:23:27;6.05;;;2.90;;
40150;SDS011;25866;52.420;10.640;2022-11-04T01:25:53;4.32;;;2.50;;
40150;SDS011;25866;52.420;10.640;2022-11-04T01:28:19;5.50;;;2.78;;
40150;SDS011;25866;52.420;10.640;2022-11-04T01:30:45;3.95;;;2.63;;
40150;SDS011;25866;52.420;10.640;2022-11-04T01:33:11;5.22;;;3.10;;
40150;SDS011;25866;52.420;10.640;2022-11-04T01:35:37;7.70;;;2.75;;
40150;SDS011;25866;52.420;10.640;2022-11-04T01:38:03;8.23;;;3.13;;
40150;SDS011;25866;52.420;10.640;2022-11-04T01:40:29;9.55;;;2.97;;
40150;SDS011;25866;52.420;10.640;2022-11-04T01:43:08;4.38;;;2.65;;
40150;SDS011;25866;52.420;10.640;2022-11-04T01:45:42;5.75;;;2.90;;
40150;SDS011;25866;52.420;10.640;2022-11-04T01:48:12;9.93;;;2.70;;
40150;SDS011;25866;52.420;10.640;2022-11-04T01:50:48;7.55;;;2.83;;
40150;SDS011;25866;52.420;10.640;2022-11-04T01:53:38;4.05;;;2.83;;
40150;SDS011;25866;52.420;10.640;2022-11-04T01:56:05;6.05;;;3.03;;
40150;SDS011;25866;52.420;10.640;2022-11-04T01:58:45;5.80;;;2.60;;
40150;SDS011;25866;52.420;10.640;2022-11-04T02:01:16;4.63;;;3.00;;
40150;SDS011;25866;52.420;10.640;2022-11-04T02:06:13;7.15;;;2.67;;
40150;SDS011;25866;52.420;10.640;2022-11-04T02:08:42;7.50;;;2.85;;
40150;SDS011;25866;52.420;10.640;2022-11-04T02:11:09;5.60;;;2.40;;
40150;SDS011;25866;52.420;10.640;2022-11-04T02:13:55;6.10;;;2.67;;
40150;SDS011;25866;52.420;10.640;2022-11-04T02:16:41;3.47;;;2.20;;
40150;SDS011;25866;52.420;10.640;2022-11-04T02:20:10;4.88;;;2.05;;
40150;SDS011;25866;52.420;10.640;2022-11-04T02:25:09;6.68;;;1.95;;
40150;SDS011;25866;52.420;10.640;2022-11-04T02:30:43;7.97;;;2.50;;
40150;SDS011;25866;52.420;10.640;2022-11-04T02:33:48;5.70;;;2.40;;
40150;SDS011;25866;52.420;10.640;2022-11-04T02:36:34;5.47;;;2.33;;
40150;SDS011;25866;52.420;10.640;2022-11-04T02:45:56;3.90;;;2.08;;
40150;SDS011;25866;52.420;10.640;2022-11-04T02:48:23;8.93;;;2.83;;
40150;SDS011;25866;52.420;10.640;2022-11-04T02:51:14;4.93;;;2.58;;
40150;SDS011;25866;52.420;10.640;2022-11-04T02:53:48;7.78;;;2.53;;
40150;SDS011;25866;52.420;10.640;2022-11-04T02:56:18;4.07;;;2.22;;
40150;SDS011;25866;52.420;10.640;2022-11-04T02:58:54;8.27;;;2.58;;
40150;SDS011;25866;52.420;10.640;2022-11-04T03:01:51;5.53;;;2.40;;
40150;SDS011;25866;52.420;10.640;2022-11-04T03:04:23;6.05;;;2.83;;
40150;SDS011;25866;52.420;10.640;2022-11-04T03:06:53;5.00;;;2.75;;
40150;SDS011;25866;52.420;10.640;2022-11-04T03:09:21;6.15;;;2.63;;
40150;SDS011;25866;52.420;10.640;2022-11-04T03:11:49;5.63;;;2.80;;
40150;SDS011;25866;52.420;10.640;2022-11-04T03:14:23;3.67;;;2.50;;
40150;SDS011;25866;52.420;10.640;2022-11-04T03:16:55;5.03;;;2.67;;
40150;SDS011;25866;52.420;10.640;2022-11-04T03:22:14;4.32;;;2.88;;
40150;SDS011;25866;52.420;10.640;2022-11-04T03:24:46;5.88;;;2.88;;
40150;SDS011;25866;52.420;10.640;2022-11-04T03:27:38;4.45;;;2.97;;
40150;SDS011;25866;52.420;10.640;2022-11-04T03:30:18;4.32;;;2.83;;
40150;SDS011;25866;52.420;10.640;2022-11-04T03:35:18;5.30;;;3.20;;
40150;SDS011;25866;52.420;10.640;2022-11-04T03:37:44;4.47;;;3.13;;
40150;SDS011;25866;52.420;10.640;2022-11-04T03:40:12;6.65;;;3.03;;
40150;SDS011;25866;52.420;10.640;2022-11-04T03:42:45;3.13;;;2.50;;
40150;SDS011;25866;52.420;10.640;2022-11-04T03:45:23;5.78;;;2.80;;
40150;SDS011;25866;52.420;10.640;2022-11-04T03:50:32;6.72;;;3.45;;
40150;SDS011;25866;52.420;10.640;2022-11-04T03:53:05;5.60;;;2.90;;
40150;SDS011;25866;52.420;10.640;2022-11-04T04:03:54;5.00;;;2.97;;
40150;SDS011;25866;52.420;10.640;2022-11-04T04:06:32;6.05;;;2.88;;
40150;SDS011;25866;52.420;10.640;2022-11-04T04:14:40;7.10;;;3.20;;
40150;SDS011;25866;52.420;10.640;2022-11-04T04:19:36;7.03;;;3.22;;
40150;SDS011;25866;52.420;10.640;2022-11-04T04:24:47;5.18;;;3.10;;
40150;SDS011;25866;52.420;10.640;2022-11-04T04:27:34;4.20;;;2.72;;
40150;SDS011;25866;52.420;10.640;2022-11-04T04:30:13;7.10;;;2.88;;
40150;SDS011;25866;52.420;10.640;2022-11-04T04:32:42;6.45;;;3.10;;
40150;SDS011;25866;52.420;10.640;2022-11-04T04:35:10;6.78;;;2.90;;
40150;SDS011;25866;52.420;10.640;2022-11-04T04:37:56;4.88;;;2.85;;
40150;SDS011;25866;52.420;10.640;2022-11-04T04:40:48;3.88;;;2.65;;
40150;SDS011;25866;52.420;10.640;2022-11-04T04:43:37;3.03;;;2.08;;
40150;SDS011;25866;52.420;10.640;2022-11-04T04:46:26;4.00;;;1.95;;
40150;SDS011;25866;52.420;10.640;2022-11-04T04:48:53;3.47;;;1.90;;
40150;SDS011;25866;52.420;10.640;2022-11-04T04:51:20;2.22;;;1.85;;
40150;SDS011;25866;52.420;10.640;2022-11-04T04:53:46;2.58;;;1.80;;
40150;SDS011;25866;52.420;10.640;2022-11-04T04:56:12;3.28;;;1.77;;
40150;SDS011;25866;52.420;10.640;2022-11-04T04:58:38;2.55;;;1.88;;
40150;SDS011;25866;52.420;10.640;2022-11-04T05:01:03;2.03;;;1.67;;
40150;SDS011;25866;52.420;10.640;2022-11-04T05:03:29;1.98;;;1.52;;
40150;SDS011;25866;52.420;10.640;2022-11-04T05:05:57;2.42;;;1.63;;
40150;SDS011;25866;52.420;10.640;2022-11-04T05:08:23;1.75;;;1.40;;
40150;SDS011;25866;52.420;10.640;2022-11-04T05:10:50;2.30;;;1.55;;
40150;SDS011;25866;52.420;10.640;2022-11-04T05:13:16;1.65;;;1.27;;
40150;SDS011;25866;52.420;10.640;2022-11-04T05:15:51;2.22;;;1.63;;
40150;SDS011;25866;52.420;10.640;2022-11-04T05:18:17;2.53;;;1.10;;
40150;SDS011;25866;52.420;10.640;2022-11-04T05:20:43;2.83;;;1.70;;
40150;SDS011;25866;52.420;10.640;2022-11-04T05:23:09;2.38;;;1.48;;
40150;SDS011;25866;52.420;10.640;2022-11-04T05:25:39;3.42;;;1.50;;
40150;SDS011;25866;52.420;10.640;2022-11-04T05:28:06;1.55;;;1.20;;
40150;SDS011;25866;52.420;10.640;2022-11-04T05:30:33;3.35;;;1.30;;
40150;SDS011;25866;52.420;10.640;2022-11-04T05:32:59;3.03;;;1.40;;
40150;SDS011;25866;52.420;10.640;2022-11-04T05:35:25;2.30;;;1.48;;
40150;SDS011;25866;52.420;10.640;2022-11-04T05:37:50;2.35;;;1.42;;
40150;SDS011;25866;52.420;10.640;2022-11-04T05:40:16;2.00;;;1.80;;
40150;SDS011;25866;52.420;10.640;2022-11-04T05:45:27;2.80;;;1.95;;
40150;SDS011;25866;52.420;10.640;2022-11-04T05:47:59;2.03;;;1.83;;
40150;SDS011;25866;52.420;10.640;2022-11-04T05:50:27;1.75;;;1.65;;
40150;SDS011;25866;52.420;10.640;2022-11-04T05:52:55;3.95;;;1.80;;
40150;SDS011;25866;52.420;10.640;2022-11-04T05:55:22;3.47;;;1.98;;
40150;SDS011;25866;52.420;10.640;2022-11-04T05:57:48;2.00;;;1.80;;
40150;SDS011;25866;52.420;10.640;2022-11-04T06:00:14;4.00;;;2.20;;
40150;SDS011;25866;52.420;10.640;2022-11-04T06:02:40;2.20;;;1.85;;
40150;SDS011;25866;52.420;10.640;2022-11-04T06:05:06;2.67;;;1.88;;
40150;SDS011;25866;52.420;10.640;2022-11-04T06:07:32;3.33;;;1.83;;
40150;SDS011;25866;52.420;10.640;2022-11-04T06:09:58;3.22;;;1.95;;
40150;SDS011;25866;52.420;10.640;2022-11-04T06:12:25;2.33;;;1.77;;
40150;SDS011;25866;52.420;10.640;2022-11-04T06:14:51;2.70;;;1.90;;
40150;SDS011;25866;52.420;10.640;2022-11-04T06:17:18;2.70;;;1.80;;
40150;SDS011;25866;52.420;10.640;2022-11-04T06:19:45;2.00;;;1.80;;
40150;SDS011;25866;52.420;10.640;2022-11-04T06:22:14;2.03;;;1.63;;
40150;SDS011;25866;52.420;10.640;2022-11-04T06:24:41;3.53;;;2.00;;
40150;SDS011;25866;52.420;10.640;2022-11-04T06:27:07;1.88;;;1.70;;
40150;SDS011;25866;52.420;10.640;2022-11-04T06:29:34;2.00;;;1.60;;
40150;SDS011;25866;52.420;10.640;2022-11-04T06:34:59;2.63;;;1.98;;
40150;SDS011;25866;52.420;10.640;2022-11-04T06:37:25;2.17;;;1.60;;
40150;SDS011;25866;52.420;10.640;2022-11-04T06:39:51;1.77;;;1.60;;
40150;SDS011;25866;52.420;10.640;2022-11-04T06:42:18;1.70;;;1.60;;
40150;SDS011;25866;52.420;10.640;2022-11-04T06:44:44;2.20;;;1.50;;
40150;SDS011;25866;52.420;10.640;2022-11-04T06:47:10;2.67;;;1.58;;
40150;SDS011;25866;52.420;10.640;2022-11-04T06:49:35;3.67;;;1.60;;
40150;SDS011;25866;52.420;10.640;2022-11-04T06:52:03;2.53;;;1.55;;
40150;SDS011;25866;52.420;10.640;2022-11-04T06:54:29;1.75;;;1.52;;
40150;SDS011;25866;52.420;10.640;2022-11-04T06:56:55;2.00;;;1.75;;
40150;SDS011;25866;52.420;10.640;2022-11-04T06:59:21;1.67;;;1.58;;
40150;SDS011;25866;52.420;10.640;2022-11-04T07:01:49;2.22;;;1.80;;
40150;SDS011;25866;52.420;10.640;2022-11-04T07:04:16;2.00;;;1.75;;
40150;SDS011;25866;52.420;10.640;2022-11-04T07:06:42;4.07;;;1.80;;
40150;SDS011;25866;52.420;10.640;2022-11-04T07:09:09;4.28;;;1.80;;
40150;SDS011;25866;52.420;10.640;2022-11-04T07:11:36;2.13;;;1.92;;
40150;SDS011;25866;52.420;10.640;2022-11-04T07:14:02;1.88;;;1.70;;
40150;SDS011;25866;52.420;10.640;2022-11-04T07:16:28;1.80;;;1.70;;
40150;SDS011;25866;52.420;10.640;2022-11-04T07:18:54;1.65;;;1.55;;
40150;SDS011;25866;52.420;10.640;2022-11-04T07:21:20;3.72;;;1.73;;
40150;SDS011;25866;52.420;10.640;2022-11-04T07:23:46;2.17;;;1.92;;
40150;SDS011;25866;52.420;10.640;2022-11-04T07:26:12;4.53;;;2.05;;
40150;SDS011;25866;52.420;10.640;2022-11-04T07:28:38;3.67;;;2.00;;
40150;SDS011;25866;52.420;10.640;2022-11-04T07:31:04;2.92;;;1.75;;
40150;SDS011;25866;52.420;10.640;2022-11-04T07:33:35;3.00;;;1.73;;
40150;SDS011;25866;52.420;10.640;2022-11-04T07:36:05;2.30;;;1.65;;
40150;SDS011;25866;52.420;10.640;2022-11-04T07:38:32;3.22;;;1.98;;
40150;SDS011;25866;52.420;10.640;2022-11-04T07:40:59;1.92;;;1.73;;
40150;SDS011;25866;52.420;10.640;2022-11-04T07:43:26;4.40;;;1.55;;
40150;SDS011;25866;52.420;10.640;2022-11-04T07:46:00;2.33;;;1.80;;
40150;SDS011;25866;52.420;10.640;2022-11-04T07:48:31;2.00;;;1.60;;
40150;SDS011;25866;52.420;10.640;2022-11-04T07:50:57;1.83;;;1.55;;
40150;SDS011;25866;52.420;10.640;2022-11-04T07:53:25;2.42;;;1.85;;
40150;SDS011;25866;52.420;10.640;2022-11-04T07:55:52;2.00;;;1.70;;
40150;SDS011;25866;52.420;10.640;2022-11-04T07:58:18;2.35;;;1.67;;
40150;SDS011;25866;52.420;10.640;2022-11-04T08:00:44;1.90;;;1.50;;
40150;SDS011;25866;52.420;10.640;2022-11-04T08:03:10;2.15;;;1.73;;
40150;SDS011;25866;52.420;10.640;2022-11-04T08:05:35;2.03;;;1.58;;
40150;SDS011;25866;52.420;10.640;2022-11-04T08:08:01;7.05;;;1.70;;
40150;SDS011;25866;52.420;10.640;2022-11-04T08:10:27;1.80;;;1.45;;
40150;SDS011;25866;52.420;10.640;2022-11-04T08:12:53;2.03;;;1.60;;
40150;SDS011;25866;52.420;10.640;2022-11-04T08:15:19;1.52;;;1.42;;
40150;SDS011;25866;52.420;10.640;2022-11-04T08:17:44;1.73;;;1.63;;
40150;SDS011;25866;52.420;10.640;2022-11-04T08:20:10;5.72;;;1.63;;
40150;SDS011;25866;52.420;10.640;2022-11-04T08:25:05;2.55;;;1.65;;
40150;SDS011;25866;52.420;10.640;2022-11-04T08:27:31;3.35;;;1.42;;
40150;SDS011;25866;52.420;10.640;2022-11-04T08:29:58;2.90;;;1.65;;
40150;SDS011;25866;52.420;10.640;2022-11-04T08:32:24;2.42;;;1.70;;
40150;SDS011;25866;52.420;10.640;2022-11-04T08:34:50;3.25;;;1.60;;
40150;SDS011;25866;52.420;10.640;2022-11-04T08:37:16;7.80;;;1.80;;
40150;SDS011;25866;52.420;10.640;2022-11-04T08:39:42;4.80;;;1.77;;
40150;SDS011;25866;52.420;10.640;2022-11-04T08:42:08;2.90;;;1.60;;
40150;SDS011;25866;52.420;10.640;2022-11-04T08:44:37;7.70;;;1.90;;
40150;SDS011;25866;52.420;10.640;2022-11-04T08:47:03;6.05;;;2.05;;
40150;SDS011;25866;52.420;10.640;2022-11-04T08:49:29;6.25;;;1.70;;
40150;SDS011;25866;52.420;10.640;2022-11-04T08:51:58;4.07;;;1.63;;
40150;SDS011;25866;52.420;10.640;2022-11-04T08:54:27;4.03;;;1.92;;
40150;SDS011;25866;52.420;10.640;2022-11-04T08:56:54;3.55;;;1.73;;
40150;SDS011;25866;52.420;10.640;2022-11-04T08:59:20;2.50;;;1.80;;
40150;SDS011;25866;52.420;10.640;2022-11-04T09:01:45;4.15;;;1.52;;
40150;SDS011;25866;52.420;10.640;2022-11-04T09:04:16;7.43;;;1.88;;
40150;SDS011;25866;52.420;10.640;2022-11-04T09:06:45;4.70;;;1.90;;
40150;SDS011;25866;52.420;10.640;2022-11-04T09:09:12;3.03;;;2.20;;
40150;SDS011;25866;52.420;10.640;2022-11-04T09:11:40;4.32;;;2.20;;
40150;SDS011;25866;52.420;10.640;2022-11-04T09:17:01;4.53;;;2.25;;
40150;SDS011;25866;52.420;10.640;2022-11-04T09:19:27;2.85;;;1.83;;
40150;SDS011;25866;52.420;10.640;2022-11-04T09:21:52;6.80;;;2.15;;
40150;SDS011;25866;52.420;10.640;2022-11-04T09:24:18;6.85;;;2.10;;
40150;SDS011;25866;52.420;10.640;2022-11-04T09:26:44;6.15;;;2.00;;
40150;SDS011;25866;52.420;10.640;2022-11-04T09:29:09;2.17;;;1.90;;
40150;SDS011;25866;52.420;10.640;2022-11-04T09:31:35;4.55;;;2.50;;
40150;SDS011;25866;52.420;10.640;2022-11-04T09:34:01;3.28;;;2.10;;
40150;SDS011;25866;52.420;10.640;2022-11-04T09:36:27;4.78;;;2.47;;
40150;SDS011;25866;52.420;10.640;2022-11-04T09:38:53;7.80;;;2.53;;
40150;SDS011;25866;52.420;10.640;2022-11-04T09:46:45;5.63;;;2.10;;
40150;SDS011;25866;52.420;10.640;2022-11-04T09:49:13;4.35;;;1.80;;
40150;SDS011;25866;52.420;10.640;2022-11-04T09:51:41;4.63;;;2.42;;
40150;SDS011;25866;52.420;10.640;2022-11-04T09:54:33;3.92;;;2.10;;
40150;SDS011;25866;52.420;10.640;2022-11-04T09:57:18;3.80;;;2.30;;
40150;SDS011;25866;52.420;10.640;2022-11-04T09:59:44;6.03;;;2.50;;
40150;SDS011;25866;52.420;10.640;2022-11-04T10:05:08;5.20;;;1.95;;
40150;SDS011;25866;52.420;10.640;2022-11-04T10:13:27;4.13;;;2.08;;
40150;SDS011;25866;52.420;10.640;2022-11-04T10:24:14;8.43;;;2.40;;
40150;SDS011;25866;52.420;10.640;2022-11-04T10:27:12;11.50;;;2.58;;
40150;SDS011;25866;52.420;10.640;2022-11-04T10:29:47;6.88;;;2.75;;
40150;SDS011;25866;52.420;10.640;2022-11-04T10:33:02;6.55;;;2.70;;
40150;SDS011;25866;52.420;10.640;2022-11-04T10:35:38;5.72;;;2.97;;
40150;SDS011;25866;52.420;10.640;2022-11-04T10:38:29;9.40;;;2.88;;
40150;SDS011;25866;52.420;10.640;2022-11-04T10:43:55;6.68;;;3.10;;
40150;SDS011;25866;52.420;10.640;2022-11-04T10:46:40;6.40;;;2.80;;
40150;SDS011;25866;52.420;10.640;2022-11-04T10:52:17;3.30;;;2.40;;
40150;SDS011;25866;52.420;10.640;2022-11-04T10:54:45;3.78;;;2.53;;
40150;SDS011;25866;52.420;10.640;2022-11-04T10:57:18;6.03;;;2.33;;
40150;SDS011;25866;52.420;10.640;2022-11-04T10:59:56;7.70;;;2.72;;
40150;SDS011;25866;52.420;10.640;2022-11-04T11:07:43;5.22;;;2.40;;
40150;SDS011;25866;52.420;10.640;2022-11-04T11:10:16;5.80;;;2.20;;
40150;SDS011;25866;52.420;10.640;2022-11-04T11:12:55;4.95;;;2.17;;
40150;SDS011;25866;52.420;10.640;2022-11-04T11:15:34;5.72;;;2.13;;
40150;SDS011;25866;52.420;10.640;2022-11-04T11:20:30;4.82;;;2.40;;
40150;SDS011;25866;52.420;10.640;2022-11-04T11:22:58;5.95;;;2.35;;
40150;SDS011;25866;52.420;10.640;2022-11-04T11:25:29;4.68;;;2.45;;
40150;SDS011;25866;52.420;10.640;2022-11-04T11:33:20;4.93;;;2.20;;
40150;SDS011;25866;52.420;10.640;2022-11-04T11:35:55;4.72;;;2.60;;
40150;SDS011;25866;52.420;10.640;2022-11-04T11:38:36;7.15;;;2.65;;
40150;SDS011;25866;52.420;10.640;2022-11-04T11:41:15;8.07;;;2.78;;
40150;SDS011;25866;52.420;10.640;2022-11-04T11:43:43;5.88;;;2.00;;
40150;SDS011;25866;52.420;10.640;2022-11-04T11:46:20;4.68;;;2.22;;
40150;SDS011;25866;52.420;10.640;2022-11-04T11:48:51;6.00;;;2.67;;
40150;SDS011;25866;52.420;10.640;2022-11-04T11:51:26;8.35;;;2.95;;
40150;SDS011;25866;52.420;10.640;2022-11-04T11:56:44;3.50;;;2.08;;
40150;SDS011;25866;52.420;10.640;2022-11-04T12:04:58;3.67;;;2.42;;
40150;SDS011;25866;52.420;10.640;2022-11-04T12:21:46;3.85;;;2.00;;
40150;SDS011;25866;52.420;10.640;2022-11-04T12:30:12;5.22;;;1.92;;
40150;SDS011;25866;52.420;10.640;2022-11-04T12:54:53;3.10;;;1.55;;
40150;SDS011;25866;52.420;10.640;2022-11-04T12:57:31;3.78;;;1.58;;
40150;SDS011;25866;52.420;10.640;2022-11-04T13:00:11;3.88;;;2.15;;
40150;SDS011;25866;52.420;10.640;2022-11-04T13:13:52;2.55;;;1.48;;
40150;SDS011;25866;52.420;10.640;2022-11-04T13:16:24;4.38;;;1.50;;
40150;SDS011;25866;52.420;10.640;2022-11-04T13:18:51;3.00;;;1.40;;
40150;SDS011;25866;52.420;10.640;2022-11-04T13:21:20;3.95;;;1.77;;
40150;SDS011;25866;52.420;10.640;2022-11-04T13:26:22;1.80;;;1.40;;
40150;SDS011;25866;52.420;10.640;2022-11-04T13:28:57;8.27;;;2.05;;
40150;SDS011;25866;52.420;10.640;2022-11-04T13:34:25;2.15;;;1.58;;
40150;SDS011;25866;52.420;10.640;2022-11-04T13:37:07;5.47;;;1.50;;
40150;SDS011;25866;52.420;10.640;2022-11-04T13:44:51;2.92;;;1.58;;
40150;SDS011;25866;52.420;10.640;2022-11-04T13:50:30;4.28;;;1.50;;
40150;SDS011;25866;52.420;10.640;2022-11-04T13:53:05;3.90;;;1.50;;
40150;SDS011;25866;52.420;10.640;2022-11-04T13:55:33;5.25;;;1.67;;
40150;SDS011;25866;52.420;10.640;2022-11-04T13:58:14;4.63;;;1.70;;
40150;SDS011;25866;52.420;10.640;2022-11-04T14:01:08;2.20;;;1.50;;
40150;SDS011;25866;52.420;10.640;2022-11-04T14:03:38;3.88;;;1.58;;
40150;SDS011;25866;52.420;10.640;2022-11-04T14:06:15;1.50;;;1.38;;
40150;SDS011;25866;52.420;10.640;2022-11-04T14:14:54;2.90;;;1.50;;
40150;SDS011;25866;52.420;10.640;2022-11-04T14:20:00;1.92;;;1.23;;
40150;SDS011;25866;52.420;10.640;2022-11-04T14:22:47;1.42;;;1.08;;
40150;SDS011;25866;52.420;10.640;2022-11-04T14:27:48;2.42;;;1.20;;
40150;SDS011;25866;52.420;10.640;2022-11-04T14:30:26;2.00;;;1.30;;
40150;SDS011;25866;52.420;10.640;2022-11-04T14:33:00;1.52;;;1.20;;
40150;SDS011;25866;52.420;10.640;2022-11-04T14:35:29;2.17;;;1.30;;
40150;SDS011;25866;52.420;10.640;2022-11-04T14:38:02;2.70;;;1.30;;
40150;SDS011;25866;52.420;10.640;2022-11-04T14:40:51;2.20;;;1.20;;
40150;SDS011;25866;52.420;10.640;2022-11-04T14:43:46;1.92;;;1.20;;
40150;SDS011;25866;52.420;10.640;2022-11-04T14:46:16;6.93;;;1.20;;
40150;SDS011;25866;52.420;10.640;2022-11-04T14:48:48;3.67;;;1.50;;
40150;SDS011;25866;52.420;10.640;2022-11-04T14:51:26;1.73;;;1.40;;
40150;SDS011;25866;52.420;10.640;2022-11-04T14:53:58;2.83;;;1.40;;
40150;SDS011;25866;52.420;10.640;2022-11-04T14:56:46;2.03;;;1.35;;
40150;SDS011;25866;52.420;10.640;2022-11-04T14:59:22;4.00;;;1.50;;
40150;SDS011;25866;52.420;10.640;2022-11-04T15:01:51;2.15;;;1.60;;
40150;SDS011;25866;52.420;10.640;2022-11-04T15:04:22;2.92;;;1.60;;
40150;SDS011;25866;52.420;10.640;2022-11-04T15:06:54;5.53;;;1.73;;
40150;SDS011;25866;52.420;10.640;2022-11-04T15:09:33;5.90;;;1.55;;
40150;SDS011;25866;52.420;10.640;2022-11-04T15:14:53;3.30;;;1.63;;
40150;SDS011;25866;52.420;10.640;2022-11-04T15:17:20;2.63;;;1.70;;
40150;SDS011;25866;52.420;10.640;2022-11-04T15:19:52;5.55;;;1.85;;
40150;SDS011;25866;52.420;10.640;2022-11-04T15:22:20;3.08;;;2.00;;
40150;SDS011;25866;52.420;10.640;2022-11-04T15:24:47;2.63;;;1.80;;
40150;SDS011;25866;52.420;10.640;2022-11-04T15:27:18;3.28;;;1.70;;
40150;SDS011;25866;52.420;10.640;2022-11-04T15:29:54;3.40;;;1.85;;
40150;SDS011;25866;52.420;10.640;2022-11-04T15:32:21;4.68;;;2.10;;
40150;SDS011;25866;52.420;10.640;2022-11-04T15:34:48;2.92;;;1.90;;
40150;SDS011;25866;52.420;10.640;2022-11-04T15:37:14;4.40;;;1.73;;
40150;SDS011;25866;52.420;10.640;2022-11-04T15:39:49;5.35;;;2.30;;
40150;SDS011;25866;52.420;10.640;2022-11-04T15:42:21;4.03;;;1.95;;
40150;SDS011;25866;52.420;10.640;2022-11-04T15:53:46;4.60;;;2.35;;
40150;SDS011;25866;52.420;10.640;2022-11-04T15:56:17;12.45;;;2.50;;
40150;SDS011;25866;52.420;10.640;2022-11-04T15:58:46;5.97;;;2.25;;
40150;SDS011;25866;52.420;10.640;2022-11-04T16:01:13;4.03;;;2.35;;
40150;SDS011;25866;52.420;10.640;2022-11-04T16:03:45;3.55;;;2.10;;
40150;SDS011;25866;52.420;10.640;2022-11-04T16:06:36;7.25;;;2.05;;
40150;SDS011;25866;52.420;10.640;2022-11-04T16:09:17;3.72;;;1.80;;
40150;SDS011;25866;52.420;10.640;2022-11-04T16:14:37;6.35;;;2.30;;
40150;SDS011;25866;52.420;10.640;2022-11-04T16:17:10;6.45;;;2.35;;
40150;SDS011;25866;52.420;10.640;2022-11-04T16:19:36;4.80;;;2.50;;
40150;SDS011;25866;52.420;10.640;2022-11-04T16:22:03;4.20;;;2.30;;
40150;SDS011;25866;52.420;10.640;2022-11-04T16:24:34;3.25;;;2.60;;
40150;SDS011;25866;52.420;10.640;2022-11-04T16:27:06;5.22;;;2.35;;
40150;SDS011;25866;52.420;10.640;2022-11-04T16:29:38;6.07;;;2.78;;
40150;SDS011;25866;52.420;10.640;2022-11-04T16:34:44;7.55;;;3.05;;
40150;SDS011;25866;52.420;10.640;2022-11-04T16:37:11;7.00;;;2.95;;
40150;SDS011;25866;52.420;10.640;2022-11-04T16:39:37;8.60;;;2.70;;
40150;SDS011;25866;52.420;10.640;2022-11-04T16:42:04;5.55;;;2.40;;
40150;SDS011;25866;52.420;10.640;2022-11-04T16:44:30;6.60;;;3.17;;
40150;SDS011;25866;52.420;10.640;2022-11-04T16:46:56;6.65;;;3.97;;
40150;SDS011;25866;52.420;10.640;2022-11-04T16:49:24;6.75;;;4.18;;
40150;SDS011;25866;52.420;10.640;2022-11-04T16:51:54;8.82;;;4.45;;
40150;SDS011;25866;52.420;10.640;2022-11-04T16:54:25;8.63;;;4.10;;
40150;SDS011;25866;52.420;10.640;2022-11-04T16:56:52;5.35;;;2.92;;
40150;SDS011;25866;52.420;10.640;2022-11-04T16:59:21;5.68;;;3.40;;
40150;SDS011;25866;52.420;10.640;2022-11-04T17:01:47;4.60;;;3.00;;
40150;SDS011;25866;52.420;10.640;2022-11-04T17:04:13;5.82;;;3.45;;
40150;SDS011;25866;52.420;10.640;2022-11-04T17:06:39;8.38;;;3.90;;
40150;SDS011;25866;52.420;10.640;2022-11-04T17:09:09;5.93;;;3.55;;
40150;SDS011;25866;52.420;10.640;2022-11-04T17:11:43;5.57;;;3.15;;
40150;SDS011;25866;52.420;10.640;2022-11-04T17:14:09;6.22;;;2.90;;
40150;SDS011;25866;52.420;10.640;2022-11-04T17:16:34;5.47;;;2.78;;
40150;SDS011;25866;52.420;10.640;2022-11-04T17:19:00;5.07;;;2.78;;
40150;SDS011;25866;52.420;10.640;2022-11-04T17:21:26;5.63;;;2.90;;
40150;SDS011;25866;52.420;10.640;2022-11-04T17:23:52;5.80;;;2.83;;
40150;SDS011;25866;52.420;10.640;2022-11-04T17:26:20;4.05;;;3.05;;
40150;SDS011;25866;52.420;10.640;2022-11-04T17:28:46;7.65;;;3.45;;
40150;SDS011;25866;52.420;10.640;2022-11-04T17:31:25;4.55;;;3.20;;
40150;SDS011;25866;52.420;10.640;2022-11-04T17:33:52;8.88;;;3.38;;
40150;SDS011;25866;52.420;10.640;2022-11-04T17:36:18;3.55;;;2.80;;
40150;SDS011;25866;52.420;10.640;2022-11-04T17:38:44;3.85;;;3.03;;
40150;SDS011;25866;52.420;10.640;2022-11-04T17:41:11;5.82;;;3.40;;
40150;SDS011;25866;52.420;10.640;2022-11-04T17:43:55;8.30;;;3.10;;
40150;SDS011;25866;52.420;10.640;2022-11-04T17:46:24;4.63;;;3.30;;
40150;SDS011;25866;52.420;10.640;2022-11-04T17:51:47;6.97;;;3.95;;
40150;SDS011;25866;52.420;10.640;2022-11-04T17:54:17;9.68;;;4.10;;
40150;SDS011;25866;52.420;10.640;2022-11-04T17:56:44;5.78;;;3.38;;
40150;SDS011;25866;52.420;10.640;2022-11-04T17:59:10;4.90;;;3.70;;
40150;SDS011;25866;52.420;10.640;2022-11-04T18:01:37;6.57;;;3.35;;
40150;SDS011;25866;52.420;10.640;2022-11-04T18:04:04;7.28;;;4.00;;
40150;SDS011;25866;52.420;10.640;2022-11-04T18:06:32;6.32;;;3.92;;
40150;SDS011;25866;52.420;10.640;2022-11-04T18:08:59;5.93;;;3.65;;
40150;SDS011;25866;52.420;10.640;2022-11-04T18:11:26;7.95;;;3.70;;
40150;SDS011;25866;52.420;10.640;2022-11-04T18:14:12;6.55;;;3.67;;
40150;SDS011;25866;52.420;10.640;2022-11-04T18:16:43;10.48;;;3.50;;